Time;durP1;ratioP1;P1;durP2;ratioP2;P2;SDS_P1;SDS_P2;PMS_P1;PMS_P2;Temp;Humidity;BMP_temperature;BMP_pressure;BME280_temperature;BME280_humidity;BME280_pressure;Samples;Min_cycle;Max_cycle;Signal;HPM_P1;HPM_P2
2023/07/16 05:53:26;;;;;;;6.07;4.30;;;30.00;40.20;;;;;;6105348;23;114284;-78
2023/07/16 05:55:54;;;;;;;6.47;4.88;;;30.30;39.40;;;;;;6110796;23;114129;-78
2023/07/16 05:58:21;;;;;;;6.40;5.07;;;30.40;39.60;;;;;;6107455;23;116266;-79
2023/07/16 06:00:48;;;;;;;6.35;4.70;;;30.70;39.00;;;;;;6110314;23;115806;-79
2023/07/16 06:03:16;;;;;;;7.60;4.45;;;31.00;38.80;;;;;;6110422;23;114074;-79
2023/07/16 06:05:44;;;;;;;6.43;4.22;;;31.30;38.30;;;;;;6110778;23;114209;-78
2023/07/16 06:08:12;;;;;;;9.15;4.50;;;31.40;38.40;;;;;;6109445;23;116011;-79
2023/07/16 06:10:39;;;;;;;8.30;4.75;;;31.60;38.10;;;;;;6109707;23;114413;-79
2023/07/16 06:13:07;;;;;;;7.22;4.25;;;31.70;37.50;;;;;;6109050;23;114587;-79
2023/07/16 06:15:34;;;;;;;6.63;4.63;;;31.80;37.70;;;;;;6109504;23;114270;-79
2023/07/16 06:18:01;;;;;;;6.93;4.22;;;31.80;37.00;;;;;;6108036;23;116185;-79
2023/07/16 06:20:28;;;;;;;5.57;4.40;;;31.60;37.00;;;;;;6083606;23;115076;-78
2023/07/16 06:22:55;;;;;;;9.23;4.70;;;31.60;37.70;;;;;;6108546;23;114122;-79
2023/07/16 06:25:23;;;;;;;4.85;3.83;;;31.80;37.30;;;;;;6110392;22;114421;-78
2023/07/16 06:27:50;;;;;;;6.47;4.63;;;31.90;37.00;;;;;;6109107;23;114948;-78
2023/07/16 06:30:17;;;;;;;6.43;4.57;;;31.90;36.80;;;;;;6109356;23;114723;-78
2023/07/16 06:32:44;;;;;;;4.50;3.97;;;31.80;37.00;;;;;;6108961;23;114239;-78
2023/07/16 06:35:11;;;;;;;5.85;4.10;;;31.80;37.20;;;;;;6108743;23;114243;-79
2023/07/16 06:37:39;;;;;;;9.77;4.75;;;31.90;36.70;;;;;;6108063;23;114809;-78
2023/07/16 06:40:07;;;;;;;5.85;4.63;;;31.90;36.90;;;;;;6109604;23;114799;-78
2023/07/16 06:42:34;;;;;;;5.70;4.43;;;32.00;36.80;;;;;;6110346;23;114426;-78
2023/07/16 06:45:01;;;;;;;5.85;4.13;;;32.10;36.60;;;;;;6108798;23;114205;-78
2023/07/16 06:47:30;;;;;;;7.15;4.45;;;32.20;36.40;;;;;;6106942;23;118621;-78
2023/07/16 06:49:57;;;;;;;6.70;4.35;;;32.30;36.30;;;;;;6109558;23;114656;-78
2023/07/16 06:52:27;;;;;;;10.40;7.15;;;32.40;36.30;;;;;;6110267;23;114370;-78
2023/07/16 06:54:55;;;;;;;5.50;4.35;;;32.50;36.10;;;;;;6108530;23;114345;-79
2023/07/16 06:57:23;;;;;;;7.75;4.20;;;32.70;36.40;;;;;;6109392;23;115093;-79
2023/07/16 06:59:50;;;;;;;5.60;4.20;;;32.80;35.60;;;;;;6107856;23;115767;-79
2023/07/16 07:02:18;;;;;;;7.13;5.03;;;32.80;35.70;;;;;;6110294;23;114207;-78
2023/07/16 07:04:45;;;;;;;5.38;4.10;;;32.70;36.20;;;;;;6110794;23;114135;-77
2023/07/16 07:07:12;;;;;;;6.70;4.20;;;32.80;35.90;;;;;;6107860;23;115410;-78
2023/07/16 07:09:39;;;;;;;6.65;4.38;;;33.00;34.90;;;;;;6108994;23;115410;-78
2023/07/16 07:12:06;;;;;;;5.43;4.43;;;33.10;34.90;;;;;;6109791;23;114417;-78
2023/07/16 07:14:33;;;;;;;6.00;3.92;;;33.20;34.60;;;;;;6108554;23;114233;-79
2023/07/16 07:17:01;;;;;;;6.20;3.88;;;33.30;34.60;;;;;;6110506;22;116113;-80
2023/07/16 07:19:29;;;;;;;6.07;4.20;;;33.40;34.50;;;;;;6108891;23;116141;-78
2023/07/16 07:21:56;;;;;;;5.50;3.78;;;33.40;34.00;;;;;;6109746;23;114365;-78
2023/07/16 07:24:23;;;;;;;6.15;4.28;;;33.40;34.00;;;;;;6134543;22;114130;-78
2023/07/16 07:26:50;;;;;;;6.20;4.15;;;33.40;33.60;;;;;;6109783;23;114952;-78
2023/07/16 07:29:17;;;;;;;7.15;4.47;;;33.30;33.90;;;;;;6109130;23;115112;-78
2023/07/16 07:31:44;;;;;;;5.70;4.20;;;33.30;34.10;;;;;;6134572;22;114050;-78
2023/07/16 07:34:12;;;;;;;6.03;4.68;;;33.20;34.30;;;;;;6134562;22;114371;-78
2023/07/16 07:36:39;;;;;;;5.85;4.30;;;33.30;34.90;;;;;;6109508;23;115122;-79
2023/07/16 07:39:07;;;;;;;4.88;4.28;;;33.20;34.60;;;;;;6108365;23;117461;-78
2023/07/16 07:41:34;;;;;;;5.55;3.90;;;33.30;33.80;;;;;;6109792;23;114310;-78
2023/07/16 07:44:01;;;;;;;5.03;4.32;;;33.30;34.50;;;;;;6111109;23;114483;-78
2023/07/16 07:46:29;;;;;;;6.28;3.85;;;33.40;34.00;;;;;;6110381;23;114937;-79
2023/07/16 07:48:56;;;;;;;6.22;4.20;;;33.40;33.90;;;;;;6108668;23;114568;-79
2023/07/16 07:51:23;;;;;;;6.13;4.22;;;33.30;33.60;;;;;;6085368;23;114351;-79
2023/07/16 07:53:52;;;;;;;5.55;4.47;;;33.30;34.30;;;;;;6110841;23;114220;-79
2023/07/16 07:56:19;;;;;;;9.10;4.75;;;33.30;34.90;;;;;;6108621;23;114883;-79
2023/07/16 07:58:50;;;;;;;5.75;4.15;;;33.20;34.80;;;;;;6108496;23;115105;-79
2023/07/16 08:01:17;;;;;;;7.03;4.70;;;33.10;35.10;;;;;;6110279;23;114051;-78
2023/07/16 08:03:44;;;;;;;9.07;5.03;;;33.10;35.50;;;;;;6110924;23;114418;-78
2023/07/16 08:06:12;;;;;;;7.20;5.15;;;33.20;35.90;;;;;;6084053;23;114928;-78
2023/07/16 08:08:40;;;;;;;7.97;4.82;;;33.20;35.20;;;;;;6108657;23;114576;-79
2023/07/16 08:11:07;;;;;;;6.57;5.05;;;33.00;35.20;;;;;;6111023;23;114099;-78
2023/07/16 08:13:34;;;;;;;8.43;5.32;;;32.90;35.40;;;;;;6110831;22;114127;-79
2023/07/16 08:16:01;;;;;;;7.80;5.30;;;32.90;35.90;;;;;;6108437;23;116224;-78
2023/07/16 08:18:29;;;;;;;7.10;5.00;;;32.90;36.50;;;;;;6110177;23;114727;-78
2023/07/16 08:20:56;;;;;;;7.55;5.47;;;33.10;35.70;;;;;;6111013;22;114361;-78
2023/07/16 08:23:23;;;;;;;6.95;5.40;;;33.10;36.00;;;;;;6110869;23;114239;-78
2023/07/16 08:25:51;;;;;;;7.20;5.32;;;33.20;36.00;;;;;;6082663;23;116996;-78
2023/07/16 08:28:18;;;;;;;6.47;5.32;;;33.20;35.10;;;;;;6109563;23;114751;-79
2023/07/16 08:30:48;;;;;;;8.52;6.13;;;33.00;35.10;;;;;;6110707;22;114308;-79
2023/07/16 08:33:15;;;;;;;9.02;5.90;;;33.00;35.80;;;;;;6109481;23;114268;-78
2023/07/16 08:35:42;;;;;;;7.28;6.20;;;33.00;36.40;;;;;;6110085;23;115529;-79
2023/07/16 08:38:13;;;;;;;6.93;5.80;;;33.10;36.00;;;;;;6133350;22;114602;-79
2023/07/16 08:40:40;;;;;;;8.38;6.47;;;33.30;36.40;;;;;;6110820;23;114196;-79
2023/07/16 08:43:07;;;;;;;9.82;7.05;;;33.40;35.60;;;;;;6110917;23;114368;-79
2023/07/16 08:45:39;;;;;;;7.90;7.10;;;33.40;35.90;;;;;;6108622;23;114897;-79
2023/07/16 08:48:07;;;;;;;8.10;6.70;;;33.40;35.30;;;;;;6109920;22;116540;-79
2023/07/16 08:50:38;;;;;;;8.50;7.45;;;33.30;35.70;;;;;;6108820;23;114256;-79
2023/07/16 08:53:05;;;;;;;7.60;6.90;;;33.10;36.10;;;;;;6109027;23;114244;-79
2023/07/16 08:55:34;;;;;;;9.57;7.93;;;33.00;36.70;;;;;;6109869;23;115006;-79
2023/07/16 08:58:01;;;;;;;9.07;8.00;;;33.00;36.60;;;;;;6108456;23;114695;-79
2023/07/16 09:00:29;;;;;;;10.55;7.75;;;32.90;36.60;;;;;;6110609;22;114989;-76
2023/07/16 09:02:56;;;;;;;9.18;8.23;;;32.90;36.50;;;;;;6109285;23;114336;-79
2023/07/16 09:05:23;;;;;;;9.48;8.30;;;32.90;36.70;;;;;;6107940;23;118035;-79
2023/07/16 09:08:06;;;;;;;9.93;8.25;;;33.00;37.10;;;;;;6107844;23;116801;-79
2023/07/16 09:10:33;;;;;;;9.30;8.30;;;33.10;36.50;;;;;;6110506;23;114421;-79
2023/07/16 09:13:00;;;;;;;10.10;8.98;;;33.10;36.90;;;;;;6109180;23;114487;-79
2023/07/16 09:15:29;;;;;;;10.85;8.85;;;33.10;37.00;;;;;;6107868;23;114893;-79
2023/07/16 09:17:57;;;;;;;12.63;9.48;;;33.00;37.40;;;;;;6108171;23;115657;-78
2023/07/16 09:20:27;;;;;;;9.00;8.20;;;33.00;37.70;;;;;;6109231;23;114356;-78
2023/07/16 09:22:57;;;;;;;9.27;8.00;;;32.90;37.20;;;;;;6110806;22;114211;-78
2023/07/16 09:25:29;;;;;;;11.00;8.63;;;33.00;37.30;;;;;;6108182;23;114961;-78
2023/07/16 09:28:03;;;;;;;10.38;8.63;;;33.10;37.20;;;;;;6109163;23;114606;-79
2023/07/16 09:30:34;;;;;;;8.70;7.90;;;33.10;36.80;;;;;;6109087;23;114178;-78
2023/07/16 09:33:13;;;;;;;9.43;8.27;;;33.10;37.10;;;;;;6110861;23;114027;-79
2023/07/16 09:35:41;;;;;;;12.25;8.55;;;33.30;37.30;;;;;;6108103;23;118811;-78
2023/07/16 09:38:10;;;;;;;9.02;8.13;;;33.30;37.30;;;;;;6107454;23;114713;-81
2023/07/16 09:40:42;;;;;;;9.73;8.82;;;33.20;37.40;;;;;;6083500;23;114231;-79
2023/07/16 09:43:10;;;;;;;10.52;9.43;;;33.20;37.80;;;;;;6108995;23;114304;-77
2023/07/16 09:45:37;;;;;;;10.02;9.02;;;33.00;37.90;;;;;;6109562;23;115056;-78
2023/07/16 09:48:05;;;;;;;9.65;8.68;;;32.90;38.10;;;;;;6109539;23;114565;-78
2023/07/16 09:50:34;;;;;;;9.95;8.95;;;32.70;38.50;;;;;;6109188;23;114070;-78
2023/07/16 09:53:04;;;;;;;9.48;8.57;;;32.60;38.80;;;;;;6108792;23;114228;-78
2023/07/16 09:55:33;;;;;;;10.43;8.70;;;32.40;39.40;;;;;;6107359;23;117486;-78
2023/07/16 09:58:02;;;;;;;10.27;9.07;;;32.20;39.50;;;;;;6084485;23;115702;-78
2023/07/16 10:00:31;;;;;;;9.93;9.02;;;32.00;39.90;;;;;;6110591;22;114093;-77
2023/07/16 10:02:58;;;;;;;10.65;9.65;;;31.90;40.00;;;;;;6084777;23;114404;-77
2023/07/16 10:05:26;;;;;;;11.13;10.10;;;31.70;40.40;;;;;;6108906;23;114908;-78
2023/07/16 10:08:00;;;;;;;11.27;10.13;;;31.60;40.80;;;;;;6109717;23;114541;-78
2023/07/16 10:10:48;;;;;;;10.65;9.55;;;31.40;40.40;;;;;;6085748;23;114380;-78
2023/07/16 10:13:16;;;;;;;10.65;9.68;;;31.40;40.90;;;;;;6109234;23;114376;-79
2023/07/16 10:15:55;;;;;;;10.52;9.50;;;31.30;41.20;;;;;;6108037;23;115163;-79
2023/07/16 10:18:31;;;;;;;10.55;9.55;;;31.60;41.20;;;;;;6109499;23;115076;-79
2023/07/16 10:21:07;;;;;;;10.98;9.98;;;31.70;40.80;;;;;;6108795;23;114316;-79
2023/07/16 10:23:39;;;;;;;11.75;10.55;;;31.80;41.20;;;;;;6109233;23;114250;-79
2023/07/16 10:26:07;;;;;;;10.80;9.80;;;31.90;40.70;;;;;;6109353;23;115009;-80
2023/07/16 10:28:35;;;;;;;11.75;9.95;;;32.10;40.60;;;;;;6109146;23;114687;-79
2023/07/16 10:31:02;;;;;;;10.95;9.90;;;32.20;40.90;;;;;;6108237;23;114096;-78
2023/07/16 10:33:29;;;;;;;10.48;9.50;;;32.30;40.60;;;;;;6110384;22;114285;-78
2023/07/16 10:36:00;;;;;;;11.15;10.23;;;32.30;40.50;;;;;;6132659;22;114830;-77
2023/07/16 10:38:27;;;;;;;11.38;10.20;;;32.60;40.10;;;;;;6107946;23;115930;-78
2023/07/16 10:40:55;;;;;;;11.48;10.27;;;32.60;39.80;;;;;;6110295;23;114154;-79
2023/07/16 10:43:23;;;;;;;11.88;10.88;;;32.80;39.40;;;;;;6109071;23;114341;-78
2023/07/16 10:45:50;;;;;;;12.32;11.25;;;32.80;39.40;;;;;;6109325;23;114987;-78
2023/07/16 10:48:23;;;;;;;12.20;11.10;;;32.80;39.20;;;;;;6108246;23;114524;-79
2023/07/16 10:50:53;;;;;;;;;;;32.70;39.20;;;;;;6085809;23;114266;-79
2023/07/16 10:53:20;;;;;;;13.15;12.02;;;32.60;39.20;;;;;;6108652;23;114338;-76
2023/07/16 10:55:47;;;;;;;12.35;11.25;;;32.30;39.80;;;;;;6108442;23;114852;-79
2023/07/16 10:58:14;;;;;;;12.32;11.15;;;32.30;39.50;;;;;;6109286;23;114620;-78
2023/07/16 11:00:41;;;;;;;12.35;11.27;;;32.30;39.80;;;;;;6110071;22;114270;-79
2023/07/16 11:03:08;;;;;;;13.30;12.20;;;32.10;40.20;;;;;;6108812;23;114195;-79
2023/07/16 11:05:35;;;;;;;13.13;11.80;;;32.00;40.50;;;;;;6107661;22;114947;-79
2023/07/16 11:08:03;;;;;;;14.95;13.43;;;31.90;40.70;;;;;;6107721;23;114587;-79
2023/07/16 11:10:30;;;;;;;13.60;12.35;;;31.80;40.90;;;;;;6108604;23;114357;-79
2023/07/16 11:12:58;;;;;;;13.45;12.20;;;31.70;40.90;;;;;;6110388;23;114550;-79
2023/07/16 11:15:33;;;;;;;13.18;11.98;;;31.60;40.90;;;;;;6108971;22;114859;-79
2023/07/16 11:18:01;;;;;;;13.43;12.05;;;31.50;41.10;;;;;;6107564;23;114663;-79
2023/07/16 11:20:29;;;;;;;12.55;11.35;;;31.40;41.50;;;;;;6109210;23;114177;-79
2023/07/16 11:22:58;;;;;;;13.43;12.18;;;31.40;41.00;;;;;;6108661;23;114206;-79
2023/07/16 11:25:26;;;;;;;12.00;10.98;;;31.30;41.10;;;;;;6109633;23;114836;-79
2023/07/16 11:27:56;;;;;;;13.02;11.77;;;31.30;41.10;;;;;;6108694;23;116604;-77
2023/07/16 11:30:24;;;;;;;13.55;12.18;;;31.30;41.20;;;;;;6108528;23;114135;-79
2023/07/16 11:32:52;;;;;;;13.35;12.13;;;31.30;41.70;;;;;;6108639;23;114374;-77
2023/07/16 11:35:20;;;;;;;13.52;12.32;;;31.30;41.70;;;;;;6083181;23;115856;-78
2023/07/16 11:37:47;;;;;;;13.00;11.85;;;31.40;41.50;;;;;;6109501;23;114778;-78
2023/07/16 11:40:19;;;;;;;14.25;12.75;;;31.50;41.50;;;;;;6109907;22;114293;-78
2023/07/16 11:42:46;;;;;;;12.80;11.65;;;31.50;42.00;;;;;;6108354;23;114344;-78
2023/07/16 11:45:18;;;;;;;13.25;12.15;;;31.40;42.30;;;;;;6108178;23;114862;-78
2023/07/16 11:47:45;;;;;;;13.45;12.15;;;31.30;42.50;;;;;;6107393;23;114647;-78
2023/07/16 11:50:13;;;;;;;14.35;12.95;;;31.20;42.90;;;;;;6109793;22;114038;-79
2023/07/16 11:52:40;;;;;;;13.30;11.93;;;31.10;43.40;;;;;;6108239;23;114125;-79
2023/07/16 11:55:07;;;;;;;12.90;11.70;;;31.30;43.30;;;;;;6106638;23;117838;-79
2023/07/16 11:57:35;;;;;;;13.63;12.32;;;31.30;42.50;;;;;;6131949;22;117476;-79
2023/07/16 12:00:03;;;;;;;12.88;11.70;;;31.40;42.80;;;;;;6109581;22;114152;-77
2023/07/16 12:02:33;;;;;;;13.85;12.65;;;31.40;42.60;;;;;;6111543;22;114240;-79
2023/07/16 12:05:01;;;;;;;13.90;12.50;;;31.40;42.20;;;;;;6108754;23;114876;-79
2023/07/16 12:07:36;;;;;;;13.63;12.32;;;31.50;42.00;;;;;;6109895;22;115226;-78
2023/07/16 12:10:04;;;;;;;13.60;12.50;;;31.60;41.90;;;;;;6110315;23;114314;-79
2023/07/16 12:12:37;;;;;;;13.35;11.90;;;31.60;41.60;;;;;;6109242;23;114326;-79
2023/07/16 12:15:07;;;;;;;13.43;12.20;;;31.60;41.20;;;;;;6108531;23;114834;-79
2023/07/16 12:17:35;;;;;;;12.77;11.57;;;31.60;41.50;;;;;;6084128;23;117345;-79
2023/07/16 12:20:04;;;;;;;13.93;12.55;;;31.70;41.40;;;;;;6109479;23;114393;-79
2023/07/16 12:22:32;;;;;;;15.05;12.88;;;31.80;41.40;;;;;;6110852;23;113959;-80
2023/07/16 12:25:00;;;;;;;13.38;12.20;;;31.80;41.30;;;;;;6084284;23;114950;-80
2023/07/16 12:27:27;;;;;;;13.98;12.68;;;31.80;40.80;;;;;;6109895;23;116115;-79
2023/07/16 12:29:55;;;;;;;14.15;12.80;;;31.60;41.10;;;;;;6084418;23;114514;-79
2023/07/16 12:32:23;;;;;;;13.68;12.32;;;31.60;41.70;;;;;;6111087;23;113980;-79
2023/07/16 12:34:50;;;;;;;13.88;12.57;;;31.50;41.60;;;;;;6109493;23;114809;-79
2023/07/16 12:37:17;;;;;;;14.45;13.13;;;31.40;41.80;;;;;;6109805;23;114785;-79
2023/07/16 12:39:44;;;;;;;15.20;13.90;;;31.40;41.70;;;;;;6109395;23;114269;-79
2023/07/16 12:42:11;;;;;;;14.00;12.80;;;31.30;41.60;;;;;;6109483;23;114226;-79
2023/07/16 12:44:38;;;;;;;14.10;12.98;;;31.30;41.80;;;;;;6109924;23;115160;-79
2023/07/16 12:47:08;;;;;;;14.57;13.27;;;31.30;41.90;;;;;;6108350;23;116085;-79
2023/07/16 12:49:36;;;;;;;14.82;13.30;;;31.40;41.80;;;;;;6110710;23;114309;-79
2023/07/16 12:52:03;;;;;;;14.40;13.15;;;31.60;41.60;;;;;;6111153;23;114147;-80
2023/07/16 12:54:30;;;;;;;14.18;12.93;;;31.70;41.20;;;;;;6132980;22;114998;-78
2023/07/16 12:56:57;;;;;;;14.18;13.00;;;31.80;40.90;;;;;;6108436;23;114776;-77
2023/07/16 12:59:24;;;;;;;14.25;13.05;;;31.80;40.50;;;;;;6133720;22;114396;-77
2023/07/16 13:01:51;;;;;;;14.43;13.20;;;31.80;40.70;;;;;;6110642;23;114197;-78
2023/07/16 13:04:19;;;;;;;14.82;13.52;;;31.80;41.00;;;;;;6109757;23;115365;-80
2023/07/16 13:06:47;;;;;;;14.73;13.43;;;31.90;41.00;;;;;;6109703;23;114601;-80
2023/07/16 13:09:15;;;;;;;14.02;12.68;;;31.70;41.40;;;;;;6109243;23;114195;-80
2023/07/16 13:11:42;;;;;;;15.10;13.57;;;31.50;41.10;;;;;;6109115;23;114190;-77
2023/07/16 13:14:09;;;;;;;13.90;12.60;;;31.40;41.70;;;;;;6107982;23;118735;-78
2023/07/16 13:16:36;;;;;;;14.38;13.18;;;31.40;40.90;;;;;;6110133;23;114602;-78
2023/07/16 13:19:04;;;;;;;14.52;13.18;;;31.30;41.10;;;;;;6134195;22;114155;-78
2023/07/16 13:21:32;;;;;;;14.45;13.18;;;31.40;41.40;;;;;;6110929;23;114122;-78
2023/07/16 13:23:59;;;;;;;14.35;13.05;;;31.40;41.50;;;;;;6132753;22;115521;-78
2023/07/16 13:26:26;;;;;;;14.82;13.50;;;31.40;41.60;;;;;;6109406;23;114738;-78
2023/07/16 13:28:53;;;;;;;16.05;14.48;;;31.60;41.40;;;;;;6109672;23;114263;-78
2023/07/16 13:31:20;;;;;;;14.00;12.80;;;31.80;41.00;;;;;;6109949;22;114626;-78
2023/07/16 13:33:47;;;;;;;14.00;12.80;;;31.80;41.00;;;;;;6109782;23;114835;-77
2023/07/16 13:36:15;;;;;;;13.70;12.48;;;31.80;40.80;;;;;;6108588;23;114625;-78
2023/07/16 13:38:43;;;;;;;14.07;12.88;;;31.60;41.20;;;;;;6110806;23;114227;-79
2023/07/16 13:41:10;;;;;;;13.82;12.52;;;31.40;41.40;;;;;;6111044;23;114046;-78
2023/07/16 13:43:37;;;;;;;14.35;13.02;;;31.30;41.60;;;;;;6109730;22;114855;-78
2023/07/16 13:46:04;;;;;;;14.00;12.70;;;31.30;41.20;;;;;;6109637;23;114630;-78
2023/07/16 13:48:31;;;;;;;13.93;12.68;;;31.30;41.60;;;;;;6133208;22;114581;-78
2023/07/16 13:51:19;;;;;;;13.73;12.52;;;31.30;41.50;;;;;;6109080;23;114571;-78
2023/07/16 13:53:46;;;;;;;14.10;12.75;;;31.30;41.10;;;;;;6107621;23;115054;-78
2023/07/16 13:56:13;;;;;;;13.80;12.60;;;31.40;40.90;;;;;;6083430;23;117928;-78
2023/07/16 13:58:40;;;;;;;15.10;13.70;;;31.40;41.20;;;;;;6108929;23;114150;-79
2023/07/16 14:01:07;;;;;;;14.30;13.10;;;31.40;41.30;;;;;;6110395;23;114401;-78
2023/07/16 14:03:35;;;;;;;14.65;13.32;;;31.60;40.90;;;;;;6132943;22;115267;-78
2023/07/16 14:06:02;;;;;;;15.07;13.68;;;31.70;41.00;;;;;;6133445;22;114609;-79
2023/07/16 14:08:33;;;;;;;15.82;14.35;;;31.90;40.60;;;;;;6108943;23;114398;-78
2023/07/16 14:11:00;;;;;;;14.88;13.68;;;32.00;40.60;;;;;;6110815;23;114185;-78
2023/07/16 14:13:28;;;;;;;16.20;14.70;;;32.10;40.10;;;;;;6108823;22;116149;-78
2023/07/16 14:15:55;;;;;;;14.23;12.93;;;32.30;39.80;;;;;;6107993;23;115865;-79
2023/07/16 14:18:22;;;;;;;14.27;13.15;;;32.30;39.60;;;;;;6110418;23;114104;-78
2023/07/16 14:20:50;;;;;;;14.95;13.52;;;32.30;39.20;;;;;;6133898;22;114065;-78
2023/07/16 14:23:17;;;;;;;14.10;12.90;;;32.30;39.10;;;;;;6109105;23;116326;-79
2023/07/16 14:25:44;;;;;;;14.57;13.45;;;32.30;39.30;;;;;;6109378;23;114636;-79
2023/07/16 14:28:11;;;;;;;14.02;12.73;;;32.40;39.50;;;;;;6108539;23;114535;-79
2023/07/16 14:30:39;;;;;;;15.35;13.85;;;32.30;39.50;;;;;;6109241;23;114167;-79
2023/07/16 14:33:06;;;;;;;14.57;13.27;;;32.40;39.80;;;;;;6109290;23;115263;-79
2023/07/16 14:35:33;;;;;;;14.80;13.63;;;32.30;39.30;;;;;;6109130;22;115938;-79
2023/07/16 14:38:04;;;;;;;13.93;12.77;;;32.30;39.40;;;;;;6109464;23;114245;-79
2023/07/16 14:40:32;;;;;;;14.02;12.75;;;32.40;39.30;;;;;;6108615;23;114005;-79
2023/07/16 14:42:59;;;;;;;13.98;12.68;;;32.40;39.10;;;;;;6109209;23;114905;-81
2023/07/16 14:45:27;;;;;;;14.32;13.02;;;32.40;38.70;;;;;;6109263;23;114585;-79
2023/07/16 14:47:57;;;;;;;13.15;12.05;;;32.40;38.50;;;;;;6108740;23;114296;-78
2023/07/16 14:50:25;;;;;;;13.98;12.63;;;32.50;38.60;;;;;;6110027;23;113983;-78
2023/07/16 14:52:53;;;;;;;14.68;13.38;;;32.50;38.60;;;;;;6107293;23;115024;-78
2023/07/16 14:55:23;;;;;;;14.07;12.80;;;32.50;38.60;;;;;;6109741;22;114482;-79
2023/07/16 14:57:54;;;;;;;14.27;12.98;;;32.40;38.60;;;;;;6084858;23;114063;-78
2023/07/16 15:00:21;;;;;;;13.38;12.07;;;32.30;38.70;;;;;;6110131;23;114311;-79
2023/07/16 15:02:49;;;;;;;13.98;12.77;;;32.20;38.90;;;;;;6082478;23;116123;-79
2023/07/16 15:05:16;;;;;;;14.95;13.43;;;32.10;38.90;;;;;;6109002;22;115766;-79
2023/07/16 15:07:43;;;;;;;14.15;12.95;;;31.90;39.50;;;;;;6110080;22;114210;-79
2023/07/16 15:10:10;;;;;;;14.93;13.52;;;31.70;39.80;;;;;;6108814;23;113974;-79
2023/07/16 15:12:37;;;;;;;14.88;13.45;;;31.50;40.30;;;;;;6108959;23;116004;-78
2023/07/16 15:15:05;;;;;;;14.93;13.50;;;31.40;40.40;;;;;;6108944;23;114523;-79
2023/07/16 15:17:33;;;;;;;14.55;13.35;;;31.30;40.60;;;;;;6109916;23;114059;-80
2023/07/16 15:20:00;;;;;;;15.10;13.80;;;31.10;41.00;;;;;;6110435;22;114237;-79
2023/07/16 15:22:27;;;;;;;14.35;12.95;;;31.00;41.20;;;;;;6108843;23;115268;-79
2023/07/16 15:24:56;;;;;;;14.65;13.45;;;31.00;41.20;;;;;;6109051;23;114481;-79
2023/07/16 15:27:25;;;;;;;16.23;14.63;;;31.00;41.30;;;;;;6083779;23;114166;-79
2023/07/16 15:29:55;;;;;;;15.80;14.50;;;31.00;41.70;;;;;;6109785;22;114068;-80
2023/07/16 15:32:22;;;;;;;21.60;15.73;;;31.00;41.80;;;;;;6132337;22;115016;-79
2023/07/16 15:34:49;;;;;;;21.58;19.52;;;30.90;44.30;;;;;;6108838;23;114711;-78
2023/07/16 15:37:17;;;;;;;20.17;17.17;;;30.70;48.30;;;;;;6111040;23;114191;-79
2023/07/16 15:39:44;;;;;;;15.75;8.57;;;30.20;47.70;;;;;;6111190;23;114263;-79
2023/07/16 15:42:11;;;;;;;12.45;9.80;;;29.60;47.50;;;;;;6110245;23;114988;-79
2023/07/16 15:44:39;;;;;;;11.98;6.55;;;28.80;48.50;;;;;;6110454;23;115283;-78
2023/07/16 15:47:06;;;;;;;11.95;6.35;;;28.00;49.40;;;;;;6111051;23;113972;-78
2023/07/16 15:49:33;;;;;;;10.07;5.65;;;27.30;50.50;;;;;;6111182;23;114072;-77
2023/07/16 15:52:00;;;;;;;8.45;7.63;;;26.50;51.40;;;;;;6107754;23;115988;-78
2023/07/16 15:54:28;;;;;;;10.32;9.18;;;25.60;52.80;;;;;;6107966;23;115263;-78
2023/07/16 15:56:56;;;;;;;7.97;7.18;;;25.00;53.40;;;;;;6111181;23;114377;-78
2023/07/16 15:59:23;;;;;;;6.90;5.65;;;24.70;53.30;;;;;;6111110;23;114480;-78
2023/07/16 16:01:53;;;;;;;6.18;5.43;;;24.30;53.20;;;;;;6108808;23;115329;-78
2023/07/16 16:04:20;;;;;;;6.03;5.40;;;24.00;54.10;;;;;;6110221;23;114525;-78
2023/07/16 16:06:47;;;;;;;6.18;5.57;;;23.80;54.60;;;;;;6111320;23;114155;-77
2023/07/16 16:09:14;;;;;;;7.95;7.15;;;23.80;54.90;;;;;;6110266;23;114109;-78
2023/07/16 16:11:41;;;;;;;8.32;7.40;;;23.70;55.90;;;;;;6109971;23;114968;-77
2023/07/16 16:14:08;;;;;;;8.98;8.07;;;23.90;55.80;;;;;;6084146;23;115655;-78
2023/07/16 16:16:38;;;;;;;8.57;7.75;;;24.20;56.30;;;;;;6108874;23;114391;-78
2023/07/16 16:19:18;;;;;;;9.00;8.10;;;24.60;56.10;;;;;;6087551;23;114264;-78
2023/07/16 16:21:46;;;;;;;9.60;8.70;;;25.00;56.30;;;;;;6110063;23;114883;-78
2023/07/16 16:24:13;;;;;;;8.93;8.13;;;25.30;56.70;;;;;;6083960;23;117418;-78
2023/07/16 16:26:41;;;;;;;8.95;8.10;;;25.50;55.20;;;;;;6110651;23;114261;-78
2023/07/16 16:29:08;;;;;;;9.10;8.25;;;25.50;54.40;;;;;;6134619;22;114529;-78
2023/07/16 16:31:35;;;;;;;9.30;8.40;;;25.70;55.50;;;;;;6108520;23;114982;-78
2023/07/16 16:34:03;;;;;;;10.45;8.30;;;25.90;53.80;;;;;;6110630;23;114475;-78
2023/07/16 16:36:30;;;;;;;9.07;7.85;;;26.20;54.70;;;;;;6110818;23;114229;-78
2023/07/16 16:38:58;;;;;;;8.88;7.78;;;26.40;54.60;;;;;;6111027;23;114082;-78
2023/07/16 16:41:25;;;;;;;7.90;7.15;;;26.60;53.10;;;;;;6109426;23;114939;-78
2023/07/16 16:43:53;;;;;;;8.55;7.75;;;26.80;52.00;;;;;;6110250;23;115070;-78
2023/07/16 16:46:20;;;;;;;9.75;8.93;;;26.90;52.70;;;;;;6110958;23;114144;-78
2023/07/16 16:48:47;;;;;;;8.82;7.93;;;27.10;53.20;;;;;;6111845;23;113963;-78
2023/07/16 16:51:14;;;;;;;8.18;7.38;;;27.20;52.00;;;;;;6133607;22;116157;-78
2023/07/16 16:53:41;;;;;;;9.93;9.05;;;27.30;51.30;;;;;;6109956;23;114579;-77
2023/07/16 16:56:09;;;;;;;9.32;8.32;;;27.40;52.60;;;;;;6111358;23;114329;-77
2023/07/16 16:58:36;;;;;;;8.65;7.85;;;27.40;53.40;;;;;;6112025;23;114487;-78
2023/07/16 17:01:04;;;;;;;10.13;9.20;;;27.30;52.10;;;;;;6110466;23;115394;-78
2023/07/16 17:03:31;;;;;;;9.40;8.50;;;27.20;53.80;;;;;;6109040;23;118321;-78
2023/07/16 17:06:02;;;;;;;9.40;8.43;;;27.00;54.10;;;;;;6110659;23;114152;-78
2023/07/16 17:08:30;;;;;;;11.13;10.13;;;26.80;53.40;;;;;;6109780;23;114450;-78
2023/07/16 17:11:24;;;;;;;9.45;8.57;;;26.80;55.20;;;;;;6109589;23;114905;-78
2023/07/16 17:13:52;;;;;;;8.73;7.93;;;26.90;53.00;;;;;;6108498;23;114493;-79
2023/07/16 17:16:20;;;;;;;10.68;9.68;;;26.90;53.70;;;;;;6108936;23;114112;-78
2023/07/16 17:18:47;;;;;;;10.15;8.38;;;27.00;54.70;;;;;;6110545;23;114546;-78
2023/07/16 17:21:15;;;;;;;10.57;9.55;;;27.00;53.10;;;;;;6108243;23;115416;-78
2023/07/16 17:23:45;;;;;;;10.18;9.18;;;27.10;53.40;;;;;;6108803;23;114718;-79
2023/07/16 17:26:16;;;;;;;10.50;9.25;;;27.10;53.70;;;;;;6110521;23;114276;-78
2023/07/16 17:28:45;;;;;;;9.27;8.18;;;27.10;53.60;;;;;;6110454;23;114535;-78
2023/07/16 17:31:12;;;;;;;8.90;7.95;;;27.10;52.50;;;;;;6107794;23;115463;-79
2023/07/16 17:33:39;;;;;;;10.80;9.70;;;27.10;52.40;;;;;;6108834;23;115198;-78
2023/07/16 17:36:06;;;;;;;12.15;10.95;;;27.10;53.50;;;;;;6110547;22;114011;-78
2023/07/16 17:38:33;;;;;;;12.00;10.80;;;27.10;54.90;;;;;;6134095;22;114120;-78
2023/07/16 17:41:01;;;;;;;11.32;10.23;;;27.10;54.50;;;;;;6109484;23;115053;-79
2023/07/16 17:43:28;;;;;;;13.38;11.95;;;27.10;54.20;;;;;;6109473;23;114993;-77
2023/07/16 17:46:00;;;;;;;13.75;12.45;;;26.90;54.90;;;;;;6109009;23;114161;-78
2023/07/16 17:48:27;;;;;;;14.07;12.57;;;26.80;55.20;;;;;;6109283;23;114326;-78
2023/07/16 17:50:59;;;;;;;13.25;11.93;;;26.80;55.00;;;;;;6109435;23;116270;-77
2023/07/16 17:53:26;;;;;;;13.57;11.25;;;26.80;55.20;;;;;;6109224;23;115417;-78
2023/07/16 17:55:53;;;;;;;10.35;9.45;;;26.80;55.30;;;;;;6108022;23;114216;-78
2023/07/16 17:58:21;;;;;;;18.88;17.05;;;26.70;54.10;;;;;;6109898;23;114205;-77
2023/07/16 18:00:54;;;;;;;9.85;8.85;;;26.60;55.10;;;;;;6083663;23;117129;-78
2023/07/16 18:03:21;;;;;;;10.77;9.77;;;26.60;53.90;;;;;;6109517;23;114540;-77
2023/07/16 18:05:49;;;;;;;9.68;8.77;;;26.60;54.10;;;;;;6109168;23;114221;-79
2023/07/16 18:08:16;;;;;;;15.82;14.43;;;26.80;53.70;;;;;;6110667;23;114212;-78
2023/07/16 18:10:47;;;;;;;13.52;12.23;;;26.80;55.20;;;;;;6109539;22;114729;-78
2023/07/16 18:13:14;;;;;;;15.25;13.73;;;26.80;55.10;;;;;;6110069;23;114468;-79
2023/07/16 18:15:41;;;;;;;12.30;11.10;;;26.80;55.80;;;;;;6110317;23;114058;-78
2023/07/16 18:18:08;;;;;;;14.48;13.18;;;26.80;54.50;;;;;;6110554;23;114464;-80
2023/07/16 18:20:36;;;;;;;12.77;11.68;;;26.80;55.50;;;;;;6107541;23;114926;-78
2023/07/16 18:23:03;;;;;;;9.43;8.52;;;26.80;55.00;;;;;;6083585;23;114606;-78